Time;durP1;ratioP1;P1;durP2;ratioP2;P2;SDS_P1;SDS_P2;PMS_P1;PMS_P2;Temp;Humidity;BMP_temperature;BMP_pressure;BME280_temperature;BME280_humidity;BME280_pressure;Samples;Min_cycle;Max_cycle;Signal;HPM_P1;HPM_P2
2023/07/28 00:04:25;;;;;;;0.57;0.40;;;;;;;16.64;100.00;97646.31;15268800;19;20031;-73
2023/07/28 00:09:52;;;;;;;1.05;0.40;;;;;;;16.64;100.00;97649.03;15274088;19;20007;-74
2023/07/28 00:15:18;;;;;;;0.38;0.30;;;;;;;16.63;100.00;97636.50;15273114;19;20130;-74
2023/07/28 00:20:42;;;;;;;0.95;0.40;;;;;;;16.63;100.00;97641.97;15271991;19;20014;-74
2023/07/28 00:26:10;;;;;;;2.63;0.40;;;;;;;16.61;100.00;97630.47;15277481;19;20018;-74
2023/07/28 00:31:34;;;;;;;1.23;0.45;;;;;;;16.60;100.00;97636.09;15303414;19;20023;-73
2023/07/28 00:36:59;;;;;;;2.55;0.40;;;;;;;16.58;100.00;97651.81;14971411;19;5001743;-74
2023/07/28 00:42:27;;;;;;;1.05;0.47;;;;;;;16.52;100.00;97661.69;15277784;19;20018;-73
2023/07/28 00:47:55;;;;;;;1.58;0.60;;;;;;;16.48;100.00;97668.59;15289177;19;20090;-72
2023/07/28 00:53:20;;;;;;;0.75;0.50;;;;;;;16.49;100.00;97673.00;15290611;19;20007;-72
2023/07/28 00:58:40;;;;;;;3.05;0.60;;;;;;;16.49;100.00;97681.16;15288222;19;20014;-72
2023/07/28 01:04:05;;;;;;;1.05;0.50;;;;;;;16.46;100.00;97685.13;15279570;19;20006;-71
2023/07/28 01:09:37;;;;;;;0.52;0.32;;;;;;;16.43;100.00;97684.72;15280985;19;20032;-74
2023/07/28 01:15:06;;;;;;;1.13;0.57;;;;;;;16.41;100.00;97676.78;15280285;19;20010;-73
2023/07/28 01:20:34;;;;;;;1.35;0.60;;;;;;;16.36;100.00;97679.31;15287680;19;20551;-73
2023/07/28 01:26:13;;;;;;;1.02;0.65;;;;;;;16.35;100.00;97671.41;15278685;19;20707;-71
2023/07/28 01:31:41;;;;;;;4.03;0.80;;;;;;;16.32;100.00;97689.78;15286662;19;20031;-73
2023/07/28 01:37:06;;;;;;;2.80;0.90;;;;;;;16.28;100.00;97691.31;15282806;19;20077;-72
2023/07/28 01:42:30;;;;;;;1.10;0.70;;;;;;;16.27;100.00;97686.91;15281893;19;20026;-74
2023/07/28 01:47:58;;;;;;;1.73;0.60;;;;;;;16.25;100.00;97686.28;15288952;19;20131;-73
2023/07/28 01:53:22;;;;;;;0.77;0.60;;;;;;;16.24;100.00;97687.34;15303277;19;20021;-71
2023/07/28 01:58:47;;;;;;;1.05;0.45;;;;;;;16.22;100.00;97675.84;15298977;19;20082;-72
2023/07/28 02:04:15;;;;;;;1.10;0.60;;;;;;;16.21;100.00;97681.50;15292341;19;20610;-72
2023/07/28 02:09:40;;;;;;;1.13;0.60;;;;;;;16.17;100.00;97681.94;15283565;19;20015;-72
2023/07/28 02:15:05;;;;;;;1.77;0.60;;;;;;;16.16;100.00;97684.88;15284248;19;20022;-72
2023/07/28 02:20:35;;;;;;;1.58;0.60;;;;;;;16.15;100.00;97689.44;15287941;19;20011;-72
2023/07/28 02:26:00;;;;;;;1.15;0.50;;;;;;;16.14;100.00;97703.25;15284943;19;20010;-72
2023/07/28 02:31:25;;;;;;;1.90;0.70;;;;;;;16.12;100.00;97699.94;15279610;19;20014;-72
2023/07/28 02:36:52;;;;;;;0.95;0.60;;;;;;;16.13;100.00;97707.03;15281438;19;20042;-73
2023/07/28 02:42:17;;;;;;;2.03;0.80;;;;;;;16.11;100.00;97700.97;15282472;19;20020;-73
2023/07/28 02:47:41;;;;;;;0.52;0.50;;;;;;;16.07;100.00;97697.00;15280163;19;20011;-73
2023/07/28 02:53:10;;;;;;;0.50;0.50;;;;;;;16.05;100.00;97710.00;15282571;19;20469;-72
2023/07/28 02:58:34;;;;;;;0.60;0.60;;;;;;;16.03;100.00;97718.34;15274392;19;20114;-74
2023/07/28 03:03:59;;;;;;;0.57;0.50;;;;;;;15.99;100.00;97720.66;15269316;19;20014;-74
2023/07/28 03:09:48;;;;;;;0.77;0.43;;;;;;;15.97;100.00;97739.03;15276389;19;20022;-73
2023/07/28 03:15:18;;;;;;;0.60;0.45;;;;;;;15.99;100.00;97745.09;15275498;19;20055;-74
2023/07/28 03:20:42;;;;;;;0.40;0.40;;;;;;;15.99;100.00;97739.69;15280087;19;20022;-72
2023/07/28 03:26:10;;;;;;;0.50;0.40;;;;;;;15.99;100.00;97736.97;15273928;19;20022;-74
2023/07/28 03:31:35;;;;;;;2.20;0.40;;;;;;;15.99;100.00;97741.56;15276327;19;20027;-72
2023/07/28 03:37:03;;;;;;;0.95;0.40;;;;;;;15.97;100.00;97736.31;15270170;19;20010;-77
2023/07/28 03:42:30;;;;;;;1.63;0.50;;;;;;;15.96;100.00;97742.00;14768904;19;10000134;-76
2023/07/28 03:47:56;;;;;;;1.15;0.40;;;;;;;15.94;100.00;97744.91;15274405;19;20011;-76
2023/07/28 03:53:20;;;;;;;0.70;0.35;;;;;;;15.97;100.00;97740.94;15277986;19;20014;-75
2023/07/28 03:58:48;;;;;;;1.20;0.40;;;;;;;15.95;100.00;97737.59;15273322;19;20018;-76
2023/07/28 04:04:19;;;;;;;1.45;0.47;;;;;;;15.94;100.00;97747.63;15273312;19;20011;-76
2023/07/28 04:09:43;;;;;;;1.50;0.50;;;;;;;15.91;100.00;97764.34;15272348;19;20010;-77
2023/07/28 04:15:11;;;;;;;2.90;0.68;;;;;;;15.89;100.00;97771.88;15277888;19;20021;-76
2023/07/28 04:20:36;;;;;;;1.77;0.60;;;;;;;15.89;100.00;97792.75;15283205;19;20014;-76
2023/07/28 04:26:01;;;;;;;1.42;0.60;;;;;;;15.89;100.00;97800.91;15333770;19;20299;-77
2023/07/28 04:31:29;;;;;;;1.90;0.52;;;;;;;15.89;100.00;97809.91;15294513;19;20011;-76
2023/07/28 04:36:58;;;;;;;1.15;0.40;;;;;;;15.90;100.00;97814.31;15273760;19;20014;-76
2023/07/28 04:42:41;;;;;;;1.05;0.43;;;;;;;15.93;100.00;97813.88;15271261;19;20350;-76
2023/07/28 04:48:08;;;;;;;1.30;0.60;;;;;;;15.95;100.00;97822.63;15275226;19;20030;-75
2023/07/28 04:53:32;;;;;;;0.85;0.38;;;;;;;15.98;100.00;97819.50;15274991;19;20126;-76
2023/07/28 04:59:07;;;;;;;1.25;0.40;;;;;;;16.02;100.00;97823.47;15271227;19;20422;-76
2023/07/28 05:04:41;;;;;;;1.05;0.50;;;;;;;16.10;100.00;97821.56;15268101;19;20279;-76
2023/07/28 05:10:06;;;;;;;1.33;0.60;;;;;;;16.14;100.00;97833.69;15273826;19;20135;-76
2023/07/28 05:15:31;;;;;;;0.70;0.60;;;;;;;16.16;100.00;97843.31;15267713;19;20011;-76
2023/07/28 05:21:07;;;;;;;1.98;0.80;;;;;;;16.21;100.00;97853.53;15272005;19;20021;-76
2023/07/28 05:26:33;;;;;;;0.68;0.40;;;;;;;16.24;100.00;97858.56;15270764;19;20481;-77
2023/07/28 05:31:57;;;;;;;1.02;0.30;;;;;;;16.24;100.00;97858.56;15283483;19;20014;-77
2023/07/28 05:37:44;;;;;;;1.38;0.40;;;;;;;16.24;100.00;97857.69;15283906;19;20009;-77
2023/07/28 05:43:09;;;;;;;0.52;0.20;;;;;;;16.21;100.00;97861.69;15282061;19;20015;-76
2023/07/28 05:48:37;;;;;;;1.27;0.30;;;;;;;16.20;100.00;97860.00;15284834;19;20649;-76
2023/07/28 05:54:04;;;;;;;0.32;0.20;;;;;;;16.17;100.00;97855.00;15285634;19;20496;-77
2023/07/28 05:59:29;;;;;;;0.75;0.30;;;;;;;16.19;100.00;97861.06;15280407;19;20026;-77
2023/07/28 06:04:55;;;;;;;0.40;0.28;;;;;;;16.23;100.00;97861.50;15275113;19;20177;-76
2023/07/28 06:10:23;;;;;;;0.75;0.30;;;;;;;16.27;100.00;97869.00;15281735;19;20495;-76
2023/07/28 06:15:48;;;;;;;0.90;0.22;;;;;;;16.33;100.00;97862.72;15275397;19;20014;-74
2023/07/28 06:21:13;;;;;;;0.73;0.20;;;;;;;16.58;100.00;97867.47;15277887;19;20105;-76
2023/07/28 06:26:40;;;;;;;0.88;0.30;;;;;;;16.92;100.00;97900.00;15277607;19;20006;-75
2023/07/28 06:32:05;;;;;;;0.20;0.20;;;;;;;17.08;100.00;97869.59;15278569;19;20007;-74
2023/07/28 06:37:31;;;;;;;1.73;0.20;;;;;;;17.23;100.00;97823.03;15277822;19;20010;-75
2023/07/28 06:42:58;;;;;;;0.68;0.20;;;;;;;17.31;100.00;97777.56;15279076;19;20029;-76
2023/07/28 06:48:23;;;;;;;0.50;0.20;;;;;;;17.40;100.00;97771.59;15269448;19;20022;-75
2023/07/28 06:53:47;;;;;;;0.52;0.10;;;;;;;17.50;100.00;97729.44;15285092;19;20022;-76
2023/07/28 06:59:14;;;;;;;0.75;0.10;;;;;;;17.44;100.00;97701.22;15277427;19;20025;-77
2023/07/28 07:04:46;;;;;;;0.47;0.20;;;;;;;17.55;100.00;97681.41;15275943;19;20026;-77
2023/07/28 07:10:11;;;;;;;0.50;0.20;;;;;;;17.64;100.00;97671.03;15285726;19;20010;-78
2023/07/28 07:15:40;;;;;;;0.10;0.10;;;;;;;17.75;100.00;97661.28;15286699;19;20069;-77
2023/07/28 07:21:05;;;;;;;0.50;0.10;;;;;;;17.91;100.00;97640.78;15279773;19;20010;-76
2023/07/28 07:26:31;;;;;;;0.30;0.10;;;;;;;18.08;100.00;97662.00;15282995;19;20011;-76
2023/07/28 07:31:58;;;;;;;0.22;0.08;;;;;;;18.15;100.00;97630.03;15281022;19;20378;-77
2023/07/28 07:37:31;;;;;;;0.15;0.10;;;;;;;18.33;100.00;97637.34;15280039;19;20567;-77
2023/07/28 07:42:57;;;;;;;0.80;0.10;;;;;;;18.36;100.00;97625.97;15279894;19;20046;-76
2023/07/28 07:48:24;;;;;;;0.40;0.10;;;;;;;18.47;100.00;97614.28;15272808;19;20788;-77
2023/07/28 07:53:49;;;;;;;0.32;0.00;;;;;;;18.69;100.00;97602.81;15271403;19;20103;-76
2023/07/28 07:59:13;;;;;;;0.85;0.28;;;;;;;18.82;100.00;97590.84;15276780;19;20014;-77
2023/07/28 08:04:40;;;;;;;0.40;0.10;;;;;;;18.90;100.00;97570.59;15277132;19;20110;-77
2023/07/28 08:10:06;;;;;;;1.27;0.10;;;;;;;19.02;100.00;97576.91;15288659;19;20450;-75
2023/07/28 08:15:31;;;;;;;0.10;0.10;;;;;;;19.13;100.00;97577.16;15327734;19;20018;-77
2023/07/28 08:20:58;;;;;;;0.30;0.10;;;;;;;19.23;100.00;97574.66;15313670;19;20346;-77
2023/07/28 08:26:23;;;;;;;0.30;0.20;;;;;;;19.21;100.00;97565.88;15274360;19;20018;-77
2023/07/28 08:31:47;;;;;;;1.67;0.10;;;;;;;19.27;100.00;97575.84;15283281;19;20021;-76
2023/07/28 08:37:14;;;;;;;0.30;0.10;;;;;;;19.28;100.00;97558.41;15280483;19;20015;-77
2023/07/28 08:42:40;;;;;;;0.13;0.10;;;;;;;19.47;100.00;97575.47;15290483;19;20014;-77
2023/07/28 08:48:05;;;;;;;0.25;0.10;;;;;;;19.62;100.00;97568.69;15333111;19;20006;-77
2023/07/28 08:53:33;;;;;;;0.70;0.10;;;;;;;19.73;100.00;97562.34;15335250;19;20022;-77
2023/07/28 08:59:01;;;;;;;1.75;0.10;;;;;;;19.71;100.00;97568.03;15299809;19;20014;-77
2023/07/28 09:04:26;;;;;;;2.72;0.10;;;;;;;19.86;100.00;97572.19;15284054;19;20475;-78
2023/07/28 09:10:02;;;;;;;0.20;0.20;;;;;;;19.84;100.00;97571.56;15290915;19;20006;-78
2023/07/28 09:15:26;;;;;;;0.10;0.10;;;;;;;20.02;100.00;97601.50;15292076;19;20027;-77
2023/07/28 09:20:52;;;;;;;0.20;0.20;;;;;;;20.17;100.00;97589.19;15290953;19;20093;-77
2023/07/28 09:26:19;;;;;;;0.60;0.13;;;;;;;20.27;100.00;97586.69;15291930;19;20605;-77
2023/07/28 09:31:44;;;;;;;0.10;0.10;;;;;;;20.33;100.00;97576.66;15289055;19;20039;-77
2023/07/28 09:37:09;;;;;;;0.43;0.10;;;;;;;20.49;100.00;97583.25;15288478;19;20011;-78
2023/07/28 09:42:38;;;;;;;0.25;0.20;;;;;;;20.61;100.00;97589.47;15286960;19;20021;-77
2023/07/28 09:48:07;;;;;;;0.30;0.10;;;;;;;20.83;100.00;97572.34;15285018;19;20377;-78
2023/07/28 09:53:33;;;;;;;0.85;0.10;;;;;;;20.93;100.00;97575.25;15290037;19;20011;-77
2023/07/28 09:59:03;;;;;;;0.47;0.17;;;;;;;20.99;100.00;97581.63;15285843;19;20021;-77
2023/07/28 10:04:28;;;;;;;1.35;0.10;;;;;;;21.01;100.00;97562.19;15281698;19;20018;-77
2023/07/28 10:09:53;;;;;;;0.52;0.10;;;;;;;20.93;100.00;97569.75;15282715;19;20373;-77
2023/07/28 10:15:23;;;;;;;0.25;0.00;;;;;;;20.99;100.00;97572.59;15285324;19;20025;-77
2023/07/28 10:20:51;;;;;;;0.00;0.00;;;;;;;21.15;100.00;97582.69;15286483;19;20395;-77
2023/07/28 10:26:33;;;;;;;1.85;0.10;;;;;;;21.13;100.00;97568.41;15288561;19;20086;-77
2023/07/28 10:32:02;;;;;;;0.30;0.10;;;;;;;21.32;100.00;97577.19;15289297;19;20029;-76
2023/07/28 10:37:28;;;;;;;0.63;0.15;;;;;;;21.55;100.00;97567.94;15281299;19;20036;-77
2023/07/28 10:42:53;;;;;;;0.85;0.10;;;;;;;21.81;100.00;97581.16;15287860;19;20014;-77
2023/07/28 10:48:21;;;;;;;0.35;0.10;;;;;;;21.80;100.00;97580.34;15284856;19;20011;-78
2023/07/28 10:53:47;;;;;;;0.68;0.10;;;;;;;21.69;100.00;97570.34;15283298;19;20828;-76
2023/07/28 10:59:12;;;;;;;0.98;0.00;;;;;;;21.63;100.00;97582.28;15283724;19;20010;-77
2023/07/28 11:04:40;;;;;;;0.30;0.10;;;;;;;21.90;100.00;97592.50;15287568;19;20022;-77
2023/07/28 11:10:06;;;;;;;0.10;0.00;;;;;;;21.97;100.00;97587.66;15281500;19;20006;-77
2023/07/28 11:15:31;;;;;;;0.20;0.00;;;;;;;21.98;100.00;97570.13;15283205;19;20346;-77
2023/07/28 11:20:59;;;;;;;0.20;0.10;;;;;;;21.84;100.00;97583.41;15282177;19;20018;-77
2023/07/28 11:26:23;;;;;;;1.83;0.10;;;;;;;22.04;100.00;97571.84;15284378;19;20507;-77
2023/07/28 11:31:48;;;;;;;0.38;0.10;;;;;;;22.36;100.00;97567.50;15284854;19;20481;-76
2023/07/28 11:37:15;;;;;;;0.43;0.10;;;;;;;22.62;100.00;97563.94;15283516;19;20808;-77
2023/07/28 11:42:41;;;;;;;0.15;0.00;;;;;;;22.67;100.00;97563.16;15277504;19;20028;-76
2023/07/28 11:48:07;;;;;;;3.25;0.10;;;;;;;22.73;100.00;97564.88;15281913;19;20028;-77
2023/07/28 11:53:38;;;;;;;0.00;0.00;;;;;;;23.04;100.00;97562.34;15285360;19;20018;-77
2023/07/28 11:59:03;;;;;;;;;;;;;;;23.06;100.00;97554.69;15292505;19;20014;-76
2023/07/28 12:04:30;;;;;;;1.70;0.10;;;;;;;23.16;100.00;97556.69;15284418;19;20417;-77
2023/07/28 12:10:06;;;;;;;0.20;0.10;;;;;;;23.31;100.00;97566.97;15277655;19;20082;-75
2023/07/28 12:15:33;;;;;;;0.08;0.08;;;;;;;23.50;100.00;97559.09;15278402;19;20020;-77
2023/07/28 12:21:03;;;;;;;0.03;0.03;;;;;;;23.16;100.00;97578.66;15328156;19;20017;-77
2023/07/28 12:26:31;;;;;;;0.88;0.10;;;;;;;23.06;100.00;97565.66;15281513;19;20032;-76
2023/07/28 12:31:57;;;;;;;0.05;0.05;;;;;;;23.39;100.00;97573.88;15276981;19;20019;-77
2023/07/28 12:37:22;;;;;;;0.03;0.03;;;;;;;23.44;100.00;97576.66;15273930;19;20014;-77
2023/07/28 12:42:54;;;;;;;0.47;0.00;;;;;;;23.38;100.00;97562.03;15269478;19;20033;-75
2023/07/28 12:48:24;;;;;;;1.25;0.10;;;;;;;23.45;100.00;97569.25;15272228;19;20022;-74
2023/07/28 12:53:49;;;;;;;0.38;0.10;;;;;;;23.37;100.00;97568.63;15274883;19;20031;-75
2023/07/28 12:59:17;;;;;;;1.95;0.10;;;;;;;23.33;100.00;97584.03;15269067;19;20014;-76
2023/07/28 13:04:49;;;;;;;0.00;0.00;;;;;;;23.62;100.00;97583.63;15270650;19;20014;-75
2023/07/28 13:10:13;;;;;;;;;;;;;;;23.55;100.00;97578.34;15274923;19;20015;-74
2023/07/28 13:15:45;;;;;;;0.35;0.10;;;;;;;23.50;100.00;97592.09;15265589;19;19915;-76
2023/07/28 13:21:11;;;;;;;0.20;0.10;;;;;;;23.53;100.00;97593.47;15272299;19;20118;-77
2023/07/28 13:26:35;;;;;;;0.30;0.10;;;;;;;23.55;100.00;97596.78;15273790;19;21145;-77
2023/07/28 13:32:03;;;;;;;0.00;0.00;;;;;;;23.63;100.00;97585.28;15270400;19;20014;-77
2023/07/28 13:37:27;;;;;;;0.20;0.10;;;;;;;23.75;100.00;97592.47;15269428;19;20010;-76
2023/07/28 13:42:54;;;;;;;0.47;0.10;;;;;;;23.82;100.00;97604.06;15267474;19;20027;-76
2023/07/28 13:48:25;;;;;;;0.10;0.05;;;;;;;23.78;100.00;97592.75;15264803;19;20018;-76
2023/07/28 13:54:10;;;;;;;0.20;0.10;;;;;;;23.58;100.00;97592.66;15284927;19;20646;-76
2023/07/28 13:59:37;;;;;;;0.60;0.10;;;;;;;23.82;100.00;97602.16;15282679;19;20466;-78
2023/07/28 14:05:11;;;;;;;0.20;0.10;;;;;;;23.89;100.00;97610.16;15281324;19;20410;-77
2023/07/28 14:10:38;;;;;;;0.20;0.10;;;;;;;23.80;100.00;97622.78;15286700;19;20022;-77
2023/07/28 14:16:05;;;;;;;0.10;0.10;;;;;;;23.90;100.00;97616.47;15289644;19;20533;-77
2023/07/28 14:21:32;;;;;;;0.20;0.10;;;;;;;24.18;100.00;97617.97;15283322;19;20606;-76
2023/07/28 14:26:57;;;;;;;0.52;0.10;;;;;;;24.41;100.00;97610.34;15287492;19;20010;-77
2023/07/28 14:32:22;;;;;;;0.10;0.00;;;;;;;24.49;100.00;97620.84;15293106;19;20038;-78
2023/07/28 14:37:49;;;;;;;1.48;0.13;;;;;;;24.99;100.00;97625.91;15295607;19;20496;-79
2023/07/28 14:43:14;;;;;;;0.43;0.05;;;;;;;24.75;100.00;97604.41;15290923;19;20592;-77
2023/07/28 14:48:38;;;;;;;0.10;0.10;;;;;;;24.92;100.00;97595.88;15292351;19;20028;-77
2023/07/28 14:54:06;;;;;;;0.43;0.10;;;;;;;25.21;100.00;97595.28;15286801;19;20035;-77
2023/07/28 14:59:30;;;;;;;0.00;0.00;;;;;;;24.84;100.00;97590.88;15286164;19;20026;-77
2023/07/28 15:04:55;;;;;;;0.10;0.00;;;;;;;24.81;100.00;97603.28;15283754;19;20025;-77
2023/07/28 15:10:22;;;;;;;0.57;0.08;;;;;;;24.67;100.00;97604.88;15289506;19;20018;-77
2023/07/28 15:15:47;;;;;;;0.30;0.10;;;;;;;24.59;100.00;97606.25;15289118;19;20014;-78
2023/07/28 15:21:12;;;;;;;0.35;0.03;;;;;;;24.70;100.00;97596.94;15286605;19;20489;-76
2023/07/28 15:26:47;;;;;;;0.10;0.10;;;;;;;25.21;100.00;97601.63;15288822;19;20078;-77
2023/07/28 15:32:12;;;;;;;0.10;0.10;;;;;;;25.34;100.00;97602.19;15348636;19;20488;-76
2023/07/28 15:37:38;;;;;;;0.95;0.20;;;;;;;25.60;100.00;97602.13;15340064;19;20363;-77
2023/07/28 15:43:05;;;;;;;0.10;0.10;;;;;;;25.30;100.00;97606.59;15304817;19;20034;-77
2023/07/28 15:48:30;;;;;;;1.10;0.10;;;;;;;25.28;100.00;97606.03;15287895;19;20365;-77
2023/07/28 15:53:54;;;;;;;0.10;0.10;;;;;;;25.03;100.00;97613.22;15287116;19;20021;-76
2023/07/28 15:59:22;;;;;;;0.10;0.10;;;;;;;24.62;100.00;97602.97;15279633;19;20424;-76
2023/07/28 16:04:46;;;;;;;0.50;0.10;;;;;;;24.37;100.00;97610.06;15282728;19;20021;-76
2023/07/28 16:10:12;;;;;;;0.25;0.10;;;;;;;24.45;100.00;97611.47;15286578;19;20017;-77
2023/07/28 16:15:39;;;;;;;0.47;0.10;;;;;;;24.43;100.00;97606.25;15282923;19;20046;-76
2023/07/28 16:21:05;;;;;;;0.45;0.20;;;;;;;24.40;100.00;97614.22;15280128;19;20058;-77
2023/07/28 16:26:29;;;;;;;0.10;0.10;;;;;;;24.27;100.00;97605.38;15281431;19;20010;-78
2023/07/28 16:31:57;;;;;;;0.10;0.10;;;;;;;24.35;100.00;97597.69;15282929;19;20011;-79
2023/07/28 16:37:21;;;;;;;0.10;0.10;;;;;;;24.24;100.00;97599.56;15316568;19;20009;-77
2023/07/28 16:42:46;;;;;;;0.10;0.10;;;;;;;24.46;100.00;97604.84;15328162;19;20343;-77
2023/07/28 16:48:13;;;;;;;1.33;0.10;;;;;;;24.45;100.00;97600.44;15270344;19;20002;-76
2023/07/28 16:53:38;;;;;;;0.68;0.10;;;;;;;24.41;100.00;97604.84;15275729;19;20046;-76
2023/07/28 16:59:02;;;;;;;0.10;0.10;;;;;;;24.45;100.00;97617.81;15272154;19;21053;-77
2023/07/28 17:04:31;;;;;;;0.70;0.20;;;;;;;24.45;100.00;97611.47;15269154;19;20493;-78
2023/07/28 17:09:55;;;;;;;1.10;0.10;;;;;;;24.21;100.00;97620.22;15270996;19;20781;-77
2023/07/28 17:15:20;;;;;;;0.03;0.00;;;;;;;24.12;100.00;97622.66;15277531;19;20015;-77
2023/07/28 17:21:00;;;;;;;0.00;0.00;;;;;;;24.10;100.00;97629.53;15297036;19;20023;-77
2023/07/28 17:26:25;;;;;;;1.65;0.13;;;;;;;24.10;100.00;97633.13;15310691;19;20030;-76
2023/07/28 17:31:49;;;;;;;0.90;0.10;;;;;;;24.20;100.00;97632.31;15296749;19;20101;-76
2023/07/28 17:37:17;;;;;;;0.15;0.10;;;;;;;24.33;100.00;97633.75;15288276;19;20027;-77
2023/07/28 17:42:41;;;;;;;0.10;0.10;;;;;;;24.37;100.00;97639.53;15290321;19;20010;-76
2023/07/28 17:48:07;;;;;;;0.20;0.10;;;;;;;23.90;100.00;97638.47;15285516;19;20010;-76
2023/07/28 17:53:34;;;;;;;0.10;0.10;;;;;;;23.58;100.00;97642.97;15288804;19;20453;-77
2023/07/28 17:58:59;;;;;;;0.40;0.10;;;;;;;23.62;100.00;97641.34;15286981;19;20018;-76
2023/07/28 18:04:23;;;;;;;1.10;0.17;;;;;;;23.50;100.00;97637.97;15285508;19;20021;-77
2023/07/28 18:09:51;;;;;;;0.30;0.10;;;;;;;23.37;100.00;97640.09;15280240;19;20021;-77
2023/07/28 18:15:16;;;;;;;1.40;0.10;;;;;;;23.21;100.00;97636.41;15283859;19;20011;-76
2023/07/28 18:20:41;;;;;;;0.65;0.20;;;;;;;23.06;100.00;97644.50;15298543;19;20350;-78
2023/07/28 18:26:08;;;;;;;0.20;0.03;;;;;;;23.03;100.00;97654.09;15291494;19;20051;-78
2023/07/28 18:31:33;;;;;;;0.55;0.15;;;;;;;23.01;100.00;97656.25;15292242;19;20014;-77
2023/07/28 18:36:57;;;;;;;1.40;0.17;;;;;;;22.92;100.00;97655.09;15288091;19;20031;-78
2023/07/28 18:42:25;;;;;;;0.60;0.30;;;;;;;22.77;100.00;97664.84;15278961;19;20092;-76
2023/07/28 18:47:49;;;;;;;0.47;0.20;;;;;;;22.63;100.00;97672.66;15281697;19;20014;-76
2023/07/28 18:53:14;;;;;;;0.50;0.35;;;;;;;22.47;100.00;97677.16;15284458;19;20021;-75
2023/07/28 18:58:41;;;;;;;0.47;0.20;;;;;;;22.35;100.00;97681.94;15279807;19;20010;-74
2023/07/28 19:04:13;;;;;;;0.20;0.20;;;;;;;22.14;100.00;97684.41;15278249;19;20017;-76
2023/07/28 19:09:38;;;;;;;0.57;0.38;;;;;;;21.93;100.00;97694.28;15279899;19;20383;-75
2023/07/28 19:15:05;;;;;;;0.82;0.30;;;;;;;21.77;100.00;97698.72;15285313;19;20383;-77
2023/07/28 19:20:30;;;;;;;0.35;0.20;;;;;;;21.58;100.00;97702.81;15283873;19;20022;-75
2023/07/28 19:25:54;;;;;;;0.43;0.10;;;;;;;21.46;100.00;97711.09;15279422;19;20096;-75
2023/07/28 19:31:22;;;;;;;0.20;0.20;;;;;;;21.37;100.00;97727.13;15282865;19;20473;-73
2023/07/28 19:36:46;;;;;;;0.50;0.30;;;;;;;21.24;100.00;97734.56;15282887;19;20015;-76
2023/07/28 19:42:11;;;;;;;0.25;0.13;;;;;;;21.21;100.00;97735.09;15278139;19;20018;-75
2023/07/28 19:47:38;;;;;;;0.77;0.20;;;;;;;21.15;100.00;97736.06;15279909;19;20102;-75
2023/07/28 19:53:04;;;;;;;0.30;0.30;;;;;;;21.11;100.00;97729.41;15284350;19;20019;-76
2023/07/28 19:58:28;;;;;;;1.23;0.30;;;;;;;21.12;100.00;97741.22;15277668;19;20011;-75
2023/07/28 20:04:02;;;;;;;2.33;0.30;;;;;;;21.05;100.00;97738.63;15271736;19;20016;-76
2023/07/28 20:09:29;;;;;;;1.27;0.40;;;;;;;20.99;100.00;97745.09;15168926;19;2004364;-75
2023/07/28 20:14:56;;;;;;;0.22;0.22;;;;;;;20.94;100.00;97749.41;15249725;19;20011;-75
2023/07/28 20:20:24;;;;;;;1.75;0.28;;;;;;;20.88;100.00;97744.88;15276617;19;20014;-75
2023/07/28 20:25:49;;;;;;;0.43;0.30;;;;;;;20.84;100.00;97745.63;15276702;19;20081;-76
2023/07/28 20:31:14;;;;;;;0.50;0.40;;;;;;;20.80;100.00;97749.94;15278343;19;20010;-75
2023/07/28 20:36:42;;;;;;;1.05;0.20;;;;;;;20.73;100.00;97750.06;15277573;19;20010;-75
2023/07/28 20:42:08;;;;;;;0.30;0.30;;;;;;;20.68;100.00;97752.69;15279297;19;20011;-75
2023/07/28 20:47:33;;;;;;;0.45;0.20;;;;;;;20.60;100.00;97749.25;15275042;19;20022;-76
2023/07/28 20:53:00;;;;;;;1.95;0.30;;;;;;;20.55;100.00;97759.28;15313960;19;20046;-74
2023/07/28 20:58:26;;;;;;;0.30;0.30;;;;;;;20.45;100.00;97760.75;15318059;19;20022;-79
2023/07/28 21:03:50;;;;;;;0.45;0.30;;;;;;;20.34;100.00;97758.88;15291146;19;20042;-76
2023/07/28 21:09:17;;;;;;;0.47;0.20;;;;;;;20.27;100.00;97769.94;15288810;19;20017;-75
2023/07/28 21:14:42;;;;;;;0.17;0.17;;;;;;;20.17;100.00;97776.00;15295562;19;20031;-75
2023/07/28 21:20:09;;;;;;;0.57;0.35;;;;;;;20.07;100.00;97774.94;15291710;19;20011;-76
2023/07/28 21:25:36;;;;;;;2.42;0.20;;;;;;;20.02;100.00;97771.03;15292601;19;20022;-76
2023/07/28 21:31:02;;;;;;;0.80;0.20;;;;;;;19.96;100.00;97791.09;15302144;19;20594;-76
2023/07/28 21:36:27;;;;;;;0.82;0.25;;;;;;;19.92;100.00;97776.25;15354789;19;20019;-75
2023/07/28 21:41:55;;;;;;;0.30;0.20;;;;;;;19.88;100.00;97780.53;15356138;19;20046;-75
2023/07/28 21:47:20;;;;;;;0.20;0.20;;;;;;;19.82;100.00;97786.91;15303463;19;20014;-75
2023/07/28 21:52:45;;;;;;;0.90;0.30;;;;;;;19.78;100.00;97800.22;15292287;19;20074;-77
2023/07/28 21:58:12;;;;;;;0.73;0.20;;;;;;;19.73;100.00;97802.00;15291344;19;20073;-75
2023/07/28 22:03:38;;;;;;;0.32;0.32;;;;;;;19.67;100.00;97812.81;15293826;19;20018;-76
2023/07/28 22:09:04;;;;;;;0.20;0.20;;;;;;;19.67;100.00;97821.00;15288832;19;20016;-76
2023/07/28 22:14:32;;;;;;;0.25;0.25;;;;;;;19.66;100.00;97827.53;15289026;19;20027;-76
2023/07/28 22:19:56;;;;;;;0.43;0.40;;;;;;;19.66;100.00;97830.28;15284019;19;20002;-76
2023/07/28 22:25:21;;;;;;;0.30;0.30;;;;;;;19.66;100.00;97835.75;15279672;19;20473;-78
2023/07/28 22:30:48;;;;;;;0.40;0.40;;;;;;;19.67;100.00;97836.56;15289780;19;20011;-77
2023/07/28 22:36:14;;;;;;;0.40;0.40;;;;;;;19.65;100.00;97839.53;15288996;19;20086;-77
2023/07/28 22:41:38;;;;;;;0.50;0.38;;;;;;;19.67;100.00;97836.56;15299681;19;20050;-79
2023/07/28 22:47:07;;;;;;;0.47;0.30;;;;;;;19.64;100.00;97823.38;15319277;19;20010;-76
2023/07/28 22:52:32;;;;;;;0.20;0.20;;;;;;;19.59;100.00;97834.19;15294700;19;20608;-77
2023/07/28 22:57:57;;;;;;;0.43;0.25;;;;;;;19.56;100.00;97835.47;15281633;19;20028;-75
2023/07/28 23:03:24;;;;;;;0.30;0.30;;;;;;;19.56;100.00;97830.03;15281733;19;20011;-76
2023/07/28 23:08:56;;;;;;;0.32;0.32;;;;;;;19.55;100.00;97828.34;15277708;19;20664;-75
2023/07/28 23:14:21;;;;;;;1.00;0.40;;;;;;;19.56;100.00;97824.56;15283318;19;20033;-76
2023/07/28 23:19:49;;;;;;;0.75;0.32;;;;;;;19.54;100.00;97826.69;15278517;19;20042;-77
2023/07/28 23:25:13;;;;;;;0.57;0.35;;;;;;;19.53;100.00;97825.00;15278040;19;20105;-76
2023/07/28 23:30:38;;;;;;;0.50;0.30;;;;;;;19.46;100.00;97830.56;15278877;19;20011;-77
2023/07/28 23:36:05;;;;;;;0.40;0.40;;;;;;;19.40;100.00;97823.34;15280231;19;20014;-78
2023/07/28 23:41:30;;;;;;;0.40;0.30;;;;;;;19.34;100.00;97825.09;15280481;19;20015;-76
2023/07/28 23:46:54;;;;;;;0.30;0.30;;;;;;;19.27;100.00;97821.63;15278221;19;20023;-76
2023/07/28 23:52:22;;;;;;;0.40;0.30;;;;;;;19.21;100.00;97817.09;15279756;19;20475;-76
2023/07/28 23:57:47;;;;;;;0.30;0.30;;;;;;;19.18;100.00;97810.19;15278862;19;20018;-77
